Time;durP1;ratioP1;P1;durP2;ratioP2;P2;SDS_P1;SDS_P2;PMS_P1;PMS_P2;Temp;Humidity;BMP_temperature;BMP_pressure;BME280_temperature;BME280_humidity;BME280_pressure;Samples;Min_cycle;Max_cycle;Signal;HPM_P1;HPM_P2
2023/02/12 00:00:29;;;;;;;18.40;13.70;;;;;;;;;;4950900;28;20200;-72
2023/02/12 00:02:54;;;;;;;21.23;14.30;;;;;;;;;;4953422;28;20177;-75
2023/02/12 00:05:19;;;;;;;19.27;12.77;;;;;;;;;;4956873;28;20253;-74
2023/02/12 00:07:45;;;;;;;19.93;14.33;;;;;;;;;;4955162;28;20204;-74
2023/02/12 00:10:10;;;;;;;17.10;12.60;;;;;;;;;;4948442;28;20181;-74
2023/02/12 00:12:36;;;;;;;17.73;12.70;;;;;;;;;;4953845;28;20324;-74
2023/02/12 00:15:01;;;;;;;22.30;14.27;;;;;;;;;;4946354;28;20208;-74
2023/02/12 00:17:26;;;;;;;17.90;12.47;;;;;;;;;;4951157;28;20188;-72
2023/02/12 00:19:52;;;;;;;17.43;12.87;;;;;;;;;;4954248;28;20200;-73
2023/02/12 00:22:17;;;;;;;21.13;14.27;;;;;;;;;;4951775;28;20173;-72
2023/02/12 00:24:42;;;;;;;19.47;13.97;;;;;;;;;;4947988;28;20205;-72
2023/02/12 00:27:07;;;;;;;17.87;12.73;;;;;;;;;;4954978;28;20177;-72
2023/02/12 00:29:32;;;;;;;17.07;12.80;;;;;;;;;;4952767;28;20659;-72
2023/02/12 00:31:57;;;;;;;17.73;12.73;;;;;;;;;;4954870;28;20271;-72
2023/02/12 00:34:23;;;;;;;18.40;12.70;;;;;;;;;;4950018;28;20237;-72
2023/02/12 00:36:48;;;;;;;18.23;13.07;;;;;;;;;;4950350;28;20181;-75
2023/02/12 00:39:13;;;;;;;18.07;13.10;;;;;;;;;;4951961;28;20600;-75
2023/02/12 00:41:38;;;;;;;19.73;13.63;;;;;;;;;;4949182;28;20228;-73
2023/02/12 00:44:04;;;;;;;16.87;13.73;;;;;;;;;;4952962;28;20249;-74
2023/02/12 00:46:29;;;;;;;19.20;13.03;;;;;;;;;;4953504;28;20177;-72
2023/02/12 00:48:54;;;;;;;24.20;14.37;;;;;;;;;;4954459;28;20204;-72
2023/02/12 00:51:19;;;;;;;17.10;13.53;;;;;;;;;;4943248;28;20707;-74
2023/02/12 00:53:44;;;;;;;18.63;12.87;;;;;;;;;;4950265;28;20702;-73
2023/02/12 00:56:10;;;;;;;18.27;13.40;;;;;;;;;;4951750;28;20208;-74
2023/02/12 00:58:35;;;;;;;18.03;13.00;;;;;;;;;;4944586;28;20691;-74
2023/02/12 01:01:00;;;;;;;19.63;13.77;;;;;;;;;;4948741;28;20271;-74
2023/02/12 01:03:26;;;;;;;24.07;14.87;;;;;;;;;;4950939;28;20263;-74
2023/02/12 01:05:51;;;;;;;18.07;13.50;;;;;;;;;;4954688;28;20267;-73
2023/02/12 01:08:16;;;;;;;23.63;14.60;;;;;;;;;;4952304;28;20177;-73
2023/02/12 01:10:42;;;;;;;21.53;14.40;;;;;;;;;;4944500;28;20280;-73
2023/02/12 01:13:10;;;;;;;17.97;13.10;;;;;;;;;;4944801;28;20277;-73
2023/02/12 01:15:35;;;;;;;20.70;15.07;;;;;;;;;;4952815;28;20265;-72
2023/02/12 01:18:01;;;;;;;19.73;14.23;;;;;;;;;;4947291;28;20272;-74
2023/02/12 01:20:26;;;;;;;17.93;13.33;;;;;;;;;;4947317;28;20213;-72
2023/02/12 01:22:51;;;;;;;20.93;14.70;;;;;;;;;;4950786;28;20177;-72
2023/02/12 01:25:16;;;;;;;17.77;13.80;;;;;;;;;;4950003;28;20188;-73
2023/02/12 01:27:42;;;;;;;19.17;14.20;;;;;;;;;;4949429;28;20184;-72
2023/02/12 01:30:08;;;;;;;20.07;15.37;;;;;;;;;;4945829;28;20176;-72
2023/02/12 01:32:34;;;;;;;21.60;15.23;;;;;;;;;;4943129;28;20213;-73
2023/02/12 01:34:59;;;;;;;21.07;14.23;;;;;;;;;;4950172;28;20223;-74
2023/02/12 01:37:24;;;;;;;18.97;14.43;;;;;;;;;;4950156;28;20252;-74
2023/02/12 01:39:49;;;;;;;25.10;17.10;;;;;;;;;;4947363;28;20232;-72
2023/02/12 01:42:15;;;;;;;24.80;15.97;;;;;;;;;;4953121;28;20204;-74
2023/02/12 01:44:59;;;;;;;22.53;16.00;;;;;;;;;;4946365;28;20209;-74
2023/02/12 01:47:24;;;;;;;21.33;15.23;;;;;;;;;;4950146;28;20173;-74
2023/02/12 01:49:49;;;;;;;21.13;15.37;;;;;;;;;;4950030;28;20191;-73
2023/02/12 01:52:14;;;;;;;20.47;14.70;;;;;;;;;;4957255;28;20604;-74
2023/02/12 01:54:40;;;;;;;17.00;12.30;;;;;;;;;;4953724;28;20220;-74
2023/02/12 01:57:06;;;;;;;19.10;12.90;;;;;;;;;;4946553;28;20185;-74
2023/02/12 01:59:32;;;;;;;20.33;13.47;;;;;;;;;;4941398;28;20731;-73
2023/02/12 02:01:58;;;;;;;19.77;13.80;;;;;;;;;;4948417;28;20237;-73
2023/02/12 02:04:26;;;;;;;20.03;13.13;;;;;;;;;;4946533;28;20193;-74
2023/02/12 02:06:58;;;;;;;22.37;14.77;;;;;;;;;;4953158;28;20181;-74
2023/02/12 02:09:24;;;;;;;19.97;13.43;;;;;;;;;;4948335;28;20178;-73
2023/02/12 02:14:33;;;;;;;20.53;13.60;;;;;;;;;;4948158;28;20209;-73
2023/02/12 02:17:15;;;;;;;20.87;14.50;;;;;;;;;;4950395;28;20655;-73
2023/02/12 02:19:43;;;;;;;20.53;14.17;;;;;;;;;;4946499;28;20256;-74
2023/02/12 02:22:27;;;;;;;18.93;12.87;;;;;;;;;;4946161;28;20767;-74
2023/02/12 02:25:10;;;;;;;20.10;13.83;;;;;;;;;;4945627;28;20205;-74
2023/02/12 02:27:44;;;;;;;18.53;13.20;;;;;;;;;;4944697;28;20200;-74
2023/02/12 02:30:13;;;;;;;21.17;15.50;;;;;;;;;;4947878;28;20276;-73
2023/02/12 02:32:53;;;;;;;19.97;14.00;;;;;;;;;;4951806;28;20177;-74
2023/02/12 02:35:33;;;;;;;20.90;12.80;;;;;;;;;;4947439;28;20188;-74
2023/02/12 02:38:13;;;;;;;20.03;14.77;;;;;;;;;;4951755;28;20180;-74
2023/02/12 02:40:50;;;;;;;21.67;13.70;;;;;;;;;;4948208;28;20197;-74
2023/02/12 02:43:19;;;;;;;21.47;15.30;;;;;;;;;;4948981;28;20207;-73
2023/02/12 02:45:50;;;;;;;21.77;14.43;;;;;;;;;;4945544;28;20192;-74
2023/02/12 02:48:24;;;;;;;17.83;14.60;;;;;;;;;;4942586;28;20213;-74
2023/02/12 02:50:52;;;;;;;20.60;14.23;;;;;;;;;;4950309;28;20185;-74
2023/02/12 02:53:25;;;;;;;19.83;14.33;;;;;;;;;;4949940;28;20692;-74
2023/02/12 02:55:52;;;;;;;18.83;14.13;;;;;;;;;;4943638;28;20742;-74
2023/02/12 02:58:31;;;;;;;22.10;14.17;;;;;;;;;;4946263;28;20220;-74
2023/02/12 03:00:59;;;;;;;19.50;15.03;;;;;;;;;;4952318;28;20282;-74
2023/02/12 03:03:34;;;;;;;18.53;14.17;;;;;;;;;;4944722;28;20458;-74
2023/02/12 03:06:04;;;;;;;20.33;14.40;;;;;;;;;;4954797;28;20172;-74
2023/02/12 03:08:34;;;;;;;18.63;13.77;;;;;;;;;;4946346;28;20181;-74
2023/02/12 03:11:03;;;;;;;20.37;15.07;;;;;;;;;;4949886;28;20188;-74
2023/02/12 03:13:31;;;;;;;18.77;14.30;;;;;;;;;;4948544;28;20209;-74
2023/02/12 03:16:01;;;;;;;22.53;15.97;;;;;;;;;;4952400;28;20189;-74
2023/02/12 03:18:32;;;;;;;17.50;13.60;;;;;;;;;;4952148;28;20185;-74
2023/02/12 03:21:02;;;;;;;19.53;14.40;;;;;;;;;;4952108;28;20578;-73
2023/02/12 03:23:38;;;;;;;18.73;13.90;;;;;;;;;;4953008;28;20683;-73
2023/02/12 03:26:06;;;;;;;19.10;14.53;;;;;;;;;;4940963;28;20181;-74
2023/02/12 03:28:33;;;;;;;21.17;15.43;;;;;;;;;;4948568;28;20655;-74
2023/02/12 03:31:01;;;;;;;23.50;14.43;;;;;;;;;;4952177;28;20177;-74
2023/02/12 03:33:34;;;;;;;19.90;13.77;;;;;;;;;;4961560;23;20235;-71
2023/02/12 03:36:02;;;;;;;21.90;14.40;;;;;;;;;;4971899;28;20343;-71
2023/02/12 03:38:36;;;;;;;19.07;13.77;;;;;;;;;;4974846;28;20180;-71
2023/02/12 03:41:07;;;;;;;22.30;14.37;;;;;;;;;;4971068;28;20689;-71
2023/02/12 03:43:37;;;;;;;20.67;13.80;;;;;;;;;;4976596;28;20228;-71
2023/02/12 03:46:07;;;;;;;16.47;13.37;;;;;;;;;;4978002;28;20195;-72
2023/02/12 03:48:36;;;;;;;17.40;13.00;;;;;;;;;;4973836;28;20187;-71
2023/02/12 03:51:13;;;;;;;18.80;14.57;;;;;;;;;;4964248;28;20207;-72
2023/02/12 03:53:38;;;;;;;17.73;14.00;;;;;;;;;;4973923;28;20215;-72
2023/02/12 03:56:10;;;;;;;19.87;14.23;;;;;;;;;;4968800;28;20184;-71
2023/02/12 03:58:36;;;;;;;20.40;13.27;;;;;;;;;;4973224;28;20570;-72
2023/02/12 04:01:01;;;;;;;20.70;14.70;;;;;;;;;;4966897;28;20211;-73
2023/02/12 04:03:26;;;;;;;18.93;13.37;;;;;;;;;;4969616;28;20196;-72
2023/02/12 04:05:52;;;;;;;20.57;14.23;;;;;;;;;;4966296;28;20191;-71
2023/02/12 04:08:17;;;;;;;18.93;15.00;;;;;;;;;;4971177;28;20204;-72
2023/02/12 04:10:42;;;;;;;19.13;13.53;;;;;;;;;;4969962;28;20176;-71
2023/02/12 04:13:07;;;;;;;18.13;13.43;;;;;;;;;;4972906;28;20176;-71
2023/02/12 04:15:35;;;;;;;17.30;13.20;;;;;;;;;;4973695;28;20185;-72
2023/02/12 04:18:06;;;;;;;17.87;12.77;;;;;;;;;;4973931;28;20235;-72
2023/02/12 04:20:43;;;;;;;22.13;14.37;;;;;;;;;;4970166;28;20577;-71
2023/02/12 04:23:27;;;;;;;19.63;14.17;;;;;;;;;;4973626;28;20180;-71
2023/02/12 04:26:07;;;;;;;17.13;13.27;;;;;;;;;;4967174;28;20183;-71
2023/02/12 04:28:32;;;;;;;20.07;13.13;;;;;;;;;;4971426;28;20183;-72
2023/02/12 04:30:59;;;;;;;19.53;13.07;;;;;;;;;;4969718;28;20180;-72
2023/02/12 04:33:27;;;;;;;19.23;13.77;;;;;;;;;;4969275;28;20208;-71
2023/02/12 04:36:05;;;;;;;18.77;14.13;;;;;;;;;;4970058;28;20194;-72
2023/02/12 04:38:33;;;;;;;18.37;13.27;;;;;;;;;;4986533;28;20187;-71
2023/02/12 04:40:59;;;;;;;17.27;12.83;;;;;;;;;;4969055;28;20737;-71
2023/02/12 04:43:33;;;;;;;16.17;12.77;;;;;;;;;;4968058;28;20292;-72
2023/02/12 04:45:58;;;;;;;18.43;13.60;;;;;;;;;;4972692;28;20183;-71
2023/02/12 04:48:23;;;;;;;17.27;12.93;;;;;;;;;;4968008;28;21192;-71
2023/02/12 04:50:48;;;;;;;17.03;12.80;;;;;;;;;;4967389;28;20227;-71
2023/02/12 04:53:14;;;;;;;17.97;12.93;;;;;;;;;;4966666;28;20176;-71
2023/02/12 04:55:39;;;;;;;17.10;11.97;;;;;;;;;;4971151;28;20176;-71
2023/02/12 04:58:05;;;;;;;15.27;11.07;;;;;;;;;;4976037;28;20184;-72
2023/02/12 05:00:30;;;;;;;16.13;11.93;;;;;;;;;;4984672;28;20240;-72
2023/02/12 05:02:56;;;;;;;17.50;12.20;;;;;;;;;;4974170;28;20624;-72
2023/02/12 05:05:21;;;;;;;18.93;12.47;;;;;;;;;;4967367;28;20260;-72
2023/02/12 05:07:47;;;;;;;16.93;12.53;;;;;;;;;;4973948;28;20231;-71
2023/02/12 05:10:12;;;;;;;16.87;12.37;;;;;;;;;;4972669;28;20211;-71
2023/02/12 05:12:37;;;;;;;16.63;11.93;;;;;;;;;;4968718;28;20184;-71
2023/02/12 05:15:02;;;;;;;16.13;11.70;;;;;;;;;;4976647;28;20212;-72
2023/02/12 05:17:28;;;;;;;19.90;11.03;;;;;;;;;;4981645;28;20651;-72
2023/02/12 05:19:53;;;;;;;18.73;12.47;;;;;;;;;;4974723;28;20181;-72
2023/02/12 05:22:18;;;;;;;16.47;12.00;;;;;;;;;;4974579;28;20212;-71
2023/02/12 05:24:44;;;;;;;15.43;11.70;;;;;;;;;;4968693;28;20204;-72
2023/02/12 05:27:09;;;;;;;15.20;10.17;;;;;;;;;;4969245;28;20191;-72
2023/02/12 05:29:35;;;;;;;17.07;11.43;;;;;;;;;;4972892;28;20268;-71
2023/02/12 05:32:00;;;;;;;15.00;10.90;;;;;;;;;;4970735;28;20199;-71
2023/02/12 05:34:25;;;;;;;16.23;11.53;;;;;;;;;;4970801;28;20259;-71
2023/02/12 05:36:50;;;;;;;16.87;12.17;;;;;;;;;;4972746;28;20267;-71
2023/02/12 05:39:15;;;;;;;19.30;11.53;;;;;;;;;;4973981;28;20672;-71
2023/02/12 05:41:41;;;;;;;17.70;11.27;;;;;;;;;;4976574;28;20208;-71
2023/02/12 05:44:06;;;;;;;16.97;11.03;;;;;;;;;;4969970;28;20328;-71
2023/02/12 05:46:31;;;;;;;18.23;11.47;;;;;;;;;;4968689;28;20250;-71
2023/02/12 05:48:56;;;;;;;16.73;11.80;;;;;;;;;;4972585;28;20180;-71
2023/02/12 05:51:23;;;;;;;15.23;11.53;;;;;;;;;;4968170;28;20559;-71
2023/02/12 05:53:50;;;;;;;17.93;10.67;;;;;;;;;;4969190;28;20204;-71
2023/02/12 05:56:16;;;;;;;17.83;12.00;;;;;;;;;;4969665;28;20184;-71
2023/02/12 05:58:43;;;;;;;15.63;11.23;;;;;;;;;;4968549;28;20560;-71
2023/02/12 06:01:09;;;;;;;15.63;10.90;;;;;;;;;;4968679;28;20215;-71
2023/02/12 06:03:34;;;;;;;15.37;10.33;;;;;;;;;;4971953;28;20350;-71
2023/02/12 06:05:59;;;;;;;14.67;10.57;;;;;;;;;;4972798;28;20662;-71
2023/02/12 06:08:25;;;;;;;15.13;10.37;;;;;;;;;;4980678;28;20180;-71
2023/02/12 06:10:50;;;;;;;17.30;12.50;;;;;;;;;;4967997;28;20180;-71
2023/02/12 06:13:15;;;;;;;14.60;10.17;;;;;;;;;;4971129;28;20192;-71
2023/02/12 06:15:40;;;;;;;14.17;10.27;;;;;;;;;;4967812;28;20188;-71
2023/02/12 06:18:05;;;;;;;15.17;10.90;;;;;;;;;;4971597;28;20532;-71
2023/02/12 06:20:31;;;;;;;17.97;11.70;;;;;;;;;;4975059;28;20207;-71
2023/02/12 06:22:56;;;;;;;17.17;10.70;;;;;;;;;;4964154;28;20184;-72
2023/02/12 06:25:21;;;;;;;15.63;10.53;;;;;;;;;;4959671;28;20208;-71
2023/02/12 06:27:46;;;;;;;16.20;10.63;;;;;;;;;;4970424;28;20266;-71
2023/02/12 06:30:12;;;;;;;15.93;11.00;;;;;;;;;;4966736;28;20646;-71
2023/02/12 06:32:37;;;;;;;17.23;10.10;;;;;;;;;;4971058;28;20210;-71
2023/02/12 06:35:02;;;;;;;15.50;11.10;;;;;;;;;;4968657;28;20206;-71
2023/02/12 06:37:28;;;;;;;16.00;11.17;;;;;;;;;;4974076;28;20172;-71
2023/02/12 06:39:53;;;;;;;16.37;11.10;;;;;;;;;;4965584;28;20212;-71
2023/02/12 06:42:18;;;;;;;16.77;11.57;;;;;;;;;;4966246;28;20431;-72
2023/02/12 06:44:45;;;;;;;16.60;12.43;;;;;;;;;;4962328;28;20283;-72
2023/02/12 06:47:10;;;;;;;16.17;11.13;;;;;;;;;;4969616;28;20188;-72
2023/02/12 06:49:35;;;;;;;16.50;11.47;;;;;;;;;;4970949;28;20187;-71
2023/02/12 06:52:00;;;;;;;16.57;11.17;;;;;;;;;;4966858;28;20184;-72
2023/02/12 06:54:26;;;;;;;17.47;11.47;;;;;;;;;;4959909;28;20640;-72
2023/02/12 06:56:51;;;;;;;15.57;10.93;;;;;;;;;;4966214;28;20227;-72
2023/02/12 06:59:16;;;;;;;17.73;11.87;;;;;;;;;;4957382;28;20175;-71
2023/02/12 07:01:41;;;;;;;18.77;11.07;;;;;;;;;;4967408;28;20755;-72
2023/02/12 07:04:07;;;;;;;17.67;11.30;;;;;;;;;;4964879;28;20573;-72
2023/02/12 07:06:33;;;;;;;15.70;11.60;;;;;;;;;;4964382;28;20188;-72
2023/02/12 07:08:58;;;;;;;16.40;12.27;;;;;;;;;;4975831;28;20193;-71
2023/02/12 07:11:24;;;;;;;17.03;10.97;;;;;;;;;;4972018;28;20188;-71
2023/02/12 07:13:50;;;;;;;19.13;12.10;;;;;;;;;;4970471;28;20197;-71
2023/02/12 07:16:15;;;;;;;17.93;11.43;;;;;;;;;;4969574;28;20184;-71
2023/02/12 07:18:41;;;;;;;16.77;11.53;;;;;;;;;;4970729;28;20279;-71
2023/02/12 07:21:07;;;;;;;17.00;11.80;;;;;;;;;;4967479;28;20205;-71
2023/02/12 07:23:33;;;;;;;17.00;11.47;;;;;;;;;;4973668;28;20583;-71
2023/02/12 07:26:02;;;;;;;15.37;11.43;;;;;;;;;;4972974;28;20189;-71
2023/02/12 07:28:27;;;;;;;18.60;11.60;;;;;;;;;;4973142;28;20226;-72
2023/02/12 07:30:53;;;;;;;18.53;13.03;;;;;;;;;;4974478;28;20184;-72
2023/02/12 07:33:18;;;;;;;20.00;13.60;;;;;;;;;;4971022;28;20637;-74
2023/02/12 07:35:43;;;;;;;16.50;11.57;;;;;;;;;;4974058;28;20184;-72
2023/02/12 07:38:09;;;;;;;17.53;11.93;;;;;;;;;;4975848;28;20195;-72
2023/02/12 07:40:34;;;;;;;16.90;11.23;;;;;;;;;;4971672;28;20210;-72
2023/02/12 07:42:59;;;;;;;19.07;11.67;;;;;;;;;;4975824;28;20547;-72
2023/02/12 07:45:24;;;;;;;16.03;11.43;;;;;;;;;;4972344;28;20185;-72
2023/02/12 07:47:49;;;;;;;17.47;11.50;;;;;;;;;;4974289;28;20188;-72
2023/02/12 07:50:15;;;;;;;16.27;11.30;;;;;;;;;;4968013;28;20236;-72
2023/02/12 07:52:40;;;;;;;19.23;12.10;;;;;;;;;;4974206;28;20244;-72
2023/02/12 07:55:05;;;;;;;15.73;10.73;;;;;;;;;;4975897;28;20196;-72
2023/02/12 07:57:30;;;;;;;18.40;11.33;;;;;;;;;;4986028;28;20192;-72
2023/02/12 07:59:56;;;;;;;16.43;10.87;;;;;;;;;;4972445;28;20646;-72
2023/02/12 08:02:24;;;;;;;15.23;10.47;;;;;;;;;;4970742;28;20204;-72
2023/02/12 08:04:49;;;;;;;15.00;11.07;;;;;;;;;;4975552;28;20272;-72
2023/02/12 08:07:14;;;;;;;16.77;12.53;;;;;;;;;;4974091;28;20276;-72
2023/02/12 08:09:40;;;;;;;16.57;12.03;;;;;;;;;;4980848;28;20231;-72
2023/02/12 08:12:05;;;;;;;15.27;10.33;;;;;;;;;;4970725;28;20592;-72
2023/02/12 08:14:30;;;;;;;16.43;11.77;;;;;;;;;;4971319;28;20199;-72
2023/02/12 08:16:55;;;;;;;15.03;10.93;;;;;;;;;;4974871;28;20235;-72
2023/02/12 08:19:20;;;;;;;14.67;10.67;;;;;;;;;;4972513;28;20186;-72
2023/02/12 08:21:48;;;;;;;16.97;12.63;;;;;;;;;;4975345;28;20235;-72
2023/02/12 08:24:13;;;;;;;17.37;10.30;;;;;;;;;;4971925;28;20661;-72
2023/02/12 08:26:38;;;;;;;15.00;11.00;;;;;;;;;;4977551;28;20172;-71
2023/02/12 08:29:06;;;;;;;17.57;11.03;;;;;;;;;;4971232;28;20176;-72
2023/02/12 08:31:32;;;;;;;15.27;11.07;;;;;;;;;;4970417;28;21124;-70
2023/02/12 08:33:58;;;;;;;14.00;10.63;;;;;;;;;;4967989;28;20688;-71
2023/02/12 08:36:25;;;;;;;17.67;10.47;;;;;;;;;;4975862;28;20190;-71
2023/02/12 08:38:50;;;;;;;18.57;11.87;;;;;;;;;;4968768;28;20703;-71
2023/02/12 08:41:17;;;;;;;17.37;11.57;;;;;;;;;;4976355;28;20203;-71
2023/02/12 08:43:42;;;;;;;15.43;10.53;;;;;;;;;;4971776;28;20741;-70
2023/02/12 08:46:09;;;;;;;15.47;10.83;;;;;;;;;;4967418;28;20267;-73
2023/02/12 08:48:34;;;;;;;15.80;11.40;;;;;;;;;;4968467;28;20173;-71
2023/02/12 08:51:06;;;;;;;14.20;10.53;;;;;;;;;;4968598;28;20564;-71
2023/02/12 08:53:32;;;;;;;16.13;10.87;;;;;;;;;;4971100;28;20204;-71
2023/02/12 08:55:57;;;;;;;16.50;12.53;;;;;;;;;;4972703;28;20552;-70
2023/02/12 08:58:22;;;;;;;18.20;13.07;;;;;;;;;;4973885;28;20176;-71
2023/02/12 09:00:47;;;;;;;17.03;12.13;;;;;;;;;;4968257;28;20600;-71
2023/02/12 09:03:13;;;;;;;15.83;11.70;;;;;;;;;;4970686;28;20275;-72
2023/02/12 09:05:39;;;;;;;17.77;11.57;;;;;;;;;;4958506;28;20631;-72
2023/02/12 09:08:04;;;;;;;17.30;11.73;;;;;;;;;;4958724;28;20177;-71
2023/02/12 09:10:29;;;;;;;18.07;12.20;;;;;;;;;;4970319;28;20191;-71
2023/02/12 09:12:54;;;;;;;16.67;11.20;;;;;;;;;;4969508;28;20204;-71
2023/02/12 09:15:20;;;;;;;17.13;11.90;;;;;;;;;;4969430;28;20196;-71
2023/02/12 09:17:45;;;;;;;15.50;11.27;;;;;;;;;;4967565;28;20199;-72
2023/02/12 09:20:10;;;;;;;16.13;11.33;;;;;;;;;;4975188;28;20584;-71
2023/02/12 09:22:37;;;;;;;18.10;12.50;;;;;;;;;;4963664;28;20208;-71
2023/02/12 09:25:04;;;;;;;13.90;11.93;;;;;;;;;;4973605;28;20238;-71
2023/02/12 09:27:29;;;;;;;16.63;12.23;;;;;;;;;;4967061;28;20180;-72
2023/02/12 09:29:54;;;;;;;16.83;11.07;;;;;;;;;;4971117;28;20186;-71
2023/02/12 09:32:19;;;;;;;16.53;11.60;;;;;;;;;;4974420;28;20242;-72
2023/02/12 09:34:45;;;;;;;17.47;11.97;;;;;;;;;;4972625;23;20228;-75
2023/02/12 09:37:10;;;;;;;14.97;11.57;;;;;;;;;;4948541;29;20256;-74
2023/02/12 09:39:35;;;;;;;16.67;11.83;;;;;;;;;;4952821;28;20272;-74
2023/02/12 09:42:00;;;;;;;16.27;11.57;;;;;;;;;;4950012;28;20228;-74
2023/02/12 09:44:25;;;;;;;16.50;11.70;;;;;;;;;;4948484;28;20303;-75
2023/02/12 09:47:14;;;;;;;12.80;10.73;;;;;;;;;;4965798;28;20205;-74
2023/02/12 09:49:44;;;;;;;16.17;12.50;;;;;;;;;;4955149;28;20185;-74
2023/02/12 09:52:12;;;;;;;17.07;11.20;;;;;;;;;;4949255;29;20197;-75
2023/02/12 09:54:38;;;;;;;16.63;11.97;;;;;;;;;;4951679;28;20264;-74
2023/02/12 09:57:13;;;;;;;15.83;11.40;;;;;;;;;;4955765;28;20269;-74
2023/02/12 09:59:58;;;;;;;16.20;12.30;;;;;;;;;;4959952;28;20258;-74
2023/02/12 10:02:23;;;;;;;13.83;11.53;;;;;;;;;;4950697;28;20272;-74
2023/02/12 10:04:49;;;;;;;16.30;11.03;;;;;;;;;;4948408;28;20200;-74
2023/02/12 10:07:20;;;;;;;15.90;11.50;;;;;;;;;;4949943;28;20216;-73
2023/02/12 10:10:01;;;;;;;15.67;12.23;;;;;;;;;;4944524;28;20260;-74
2023/02/12 10:12:44;;;;;;;18.70;12.07;;;;;;;;;;4953533;29;20211;-74
2023/02/12 10:15:24;;;;;;;15.33;11.10;;;;;;;;;;4952590;28;20219;-74
2023/02/12 10:17:52;;;;;;;15.90;12.60;;;;;;;;;;4952494;28;20156;-74
2023/02/12 10:20:23;;;;;;;14.83;11.60;;;;;;;;;;4950459;28;21240;-74
2023/02/12 10:23:18;;;;;;;15.77;11.00;;;;;;;;;;4953752;29;20525;-74
2023/02/12 10:25:52;;;;;;;17.97;12.53;;;;;;;;;;4946338;28;20221;-74
2023/02/12 10:28:38;;;;;;;15.13;11.73;;;;;;;;;;4952804;29;20177;-74
2023/02/12 10:31:06;;;;;;;15.90;11.83;;;;;;;;;;4948864;28;20273;-74
2023/02/12 10:33:34;;;;;;;15.90;11.17;;;;;;;;;;4953220;29;20189;-74
2023/02/12 10:36:03;;;;;;;14.70;10.07;;;;;;;;;;4953101;28;20177;-74
2023/02/12 10:38:31;;;;;;;16.37;11.43;;;;;;;;;;4943600;28;20193;-74
2023/02/12 10:41:00;;;;;;;14.50;11.23;;;;;;;;;;4948744;28;20213;-74
2023/02/12 10:43:25;;;;;;;14.90;11.73;;;;;;;;;;4949609;28;20194;-74
2023/02/12 10:45:51;;;;;;;16.10;12.37;;;;;;;;;;4940858;29;20181;-74
2023/02/12 10:48:21;;;;;;;15.93;11.27;;;;;;;;;;4948974;29;20204;-74
2023/02/12 10:50:58;;;;;;;14.87;11.47;;;;;;;;;;4944292;28;20252;-74
2023/02/12 10:53:34;;;;;;;16.77;10.70;;;;;;;;;;4947875;29;20188;-74
2023/02/12 10:56:12;;;;;;;14.43;11.47;;;;;;;;;;4945787;28;20217;-74
2023/02/12 10:58:49;;;;;;;14.00;11.63;;;;;;;;;;4944697;28;20294;-74
2023/02/12 11:01:34;;;;;;;13.27;10.33;;;;;;;;;;4953053;28;20213;-74
2023/02/12 11:04:17;;;;;;;15.73;11.30;;;;;;;;;;4942102;28;20647;-75
2023/02/12 11:06:56;;;;;;;14.90;11.20;;;;;;;;;;4942601;28;20292;-75
2023/02/12 11:09:34;;;;;;;14.37;10.67;;;;;;;;;;4946660;28;20177;-75
2023/02/12 11:11:59;;;;;;;17.60;11.47;;;;;;;;;;4945286;28;20232;-75
2023/02/12 11:14:25;;;;;;;13.77;10.50;;;;;;;;;;4945498;28;20329;-73
2023/02/12 11:16:52;;;;;;;13.97;11.00;;;;;;;;;;4942373;29;20240;-73
2023/02/12 11:19:21;;;;;;;15.20;11.20;;;;;;;;;;4950146;28;20269;-73
2023/02/12 11:21:47;;;;;;;16.83;10.63;;;;;;;;;;4950279;28;20671;-75
2023/02/12 11:24:28;;;;;;;17.00;11.60;;;;;;;;;;4939713;29;20225;-73
2023/02/12 11:27:20;;;;;;;14.20;10.93;;;;;;;;;;4948335;28;20185;-73
2023/02/12 11:29:50;;;;;;;16.37;11.23;;;;;;;;;;4953854;28;20255;-73
2023/02/12 11:32:16;;;;;;;13.60;10.40;;;;;;;;;;4944128;28;20315;-74
2023/02/12 11:34:42;;;;;;;13.00;10.50;;;;;;;;;;4950010;28;20226;-74
2023/02/12 11:37:21;;;;;;;13.63;10.30;;;;;;;;;;4963564;28;20208;-73
2023/02/12 11:39:48;;;;;;;13.77;10.20;;;;;;;;;;4946434;28;20283;-74
2023/02/12 11:42:15;;;;;;;12.83;10.37;;;;;;;;;;4956359;28;20255;-73
2023/02/12 11:44:41;;;;;;;11.87;10.37;;;;;;;;;;4955136;29;20204;-73
2023/02/12 11:47:09;;;;;;;12.67;10.77;;;;;;;;;;4949513;28;20718;-73
2023/02/12 11:49:42;;;;;;;12.90;9.90;;;;;;;;;;4949934;28;20219;-73
2023/02/12 11:52:15;;;;;;;12.70;10.20;;;;;;;;;;4947960;28;20569;-73
2023/02/12 11:54:42;;;;;;;11.43;9.50;;;;;;;;;;4950501;29;20240;-73
2023/02/12 11:57:27;;;;;;;12.90;9.90;;;;;;;;;;4952381;28;20187;-72
2023/02/12 11:59:53;;;;;;;15.07;11.00;;;;;;;;;;4955201;29;20185;-72
2023/02/12 12:02:24;;;;;;;14.93;9.47;;;;;;;;;;4951983;28;20208;-77
2023/02/12 12:04:51;;;;;;;12.97;10.13;;;;;;;;;;4955011;29;20197;-73
2023/02/12 12:07:29;;;;;;;12.70;10.13;;;;;;;;;;4961335;28;20375;-73
2023/02/12 12:09:57;;;;;;;11.37;9.67;;;;;;;;;;4950324;29;20654;-73
2023/02/12 12:12:37;;;;;;;11.63;9.57;;;;;;;;;;4955556;28;20181;-73
2023/02/12 12:20:48;;;;;;;13.97;8.83;;;;;;;;;;4955060;29;20216;-73
2023/02/12 12:23:19;;;;;;;16.07;9.83;;;;;;;;;;4955187;28;20763;-73
2023/02/12 12:25:49;;;;;;;12.97;10.13;;;;;;;;;;4955820;28;20176;-73
2023/02/12 12:28:31;;;;;;;10.70;8.43;;;;;;;;;;4955839;28;20667;-73
2023/02/12 12:31:14;;;;;;;11.97;9.43;;;;;;;;;;4952099;29;20232;-74
2023/02/12 12:33:42;;;;;;;13.87;9.50;;;;;;;;;;4949407;28;20682;-73
2023/02/12 12:36:13;;;;;;;14.07;10.90;;;;;;;;;;4940535;28;20204;-74
2023/02/12 12:39:04;;;;;;;12.57;9.53;;;;;;;;;;4952397;29;20188;-74
2023/02/12 12:41:47;;;;;;;11.77;9.47;;;;;;;;;;4952472;28;20223;-73
2023/02/12 12:44:22;;;;;;;14.60;9.73;;;;;;;;;;4951467;28;20211;-73
2023/02/12 12:46:56;;;;;;;12.20;9.00;;;;;;;;;;4956397;28;20173;-74
2023/02/12 12:49:21;;;;;;;13.23;10.45;;;;;;;;;;4942107;28;20184;-74
2023/02/12 12:51:50;;;;;;;10.73;9.57;;;;;;;;;;4953567;28;20177;-75
2023/02/12 12:54:27;;;;;;;14.13;10.07;;;;;;;;;;4950885;28;20680;-74
2023/02/12 12:56:59;;;;;;;14.38;10.18;;;;;;;;;;4952996;28;20185;-74
2023/02/12 12:59:27;;;;;;;13.17;9.43;;;;;;;;;;4951355;28;20189;-75
2023/02/12 13:02:11;;;;;;;14.07;8.85;;;;;;;;;;4956562;28;20205;-74
2023/02/12 13:04:49;;;;;;;11.90;9.17;;;;;;;;;;4954756;28;20189;-74
2023/02/12 13:07:33;;;;;;;11.75;9.30;;;;;;;;;;4953101;28;20189;-74
2023/02/12 13:10:17;;;;;;;13.57;10.63;;;;;;;;;;4954908;28;20185;-74
2023/02/12 13:12:54;;;;;;;12.00;9.65;;;;;;;;;;4954662;28;20227;-74
2023/02/12 13:15:38;;;;;;;13.00;10.30;;;;;;;;;;4946892;28;20220;-74
2023/02/12 13:18:15;;;;;;;13.93;10.33;;;;;;;;;;4953878;28;20659;-74
2023/02/12 13:20:51;;;;;;;14.47;10.10;;;;;;;;;;4955132;28;20172;-74
2023/02/12 13:23:36;;;;;;;14.63;10.97;;;;;;;;;;4953531;29;20622;-74
2023/02/12 13:26:01;;;;;;;13.60;10.37;;;;;;;;;;4947528;28;20185;-75
2023/02/12 13:28:32;;;;;;;12.60;10.27;;;;;;;;;;4954725;28;20240;-73
2023/02/12 13:30:58;;;;;;;14.27;10.83;;;;;;;;;;4951786;28;20189;-73
2023/02/12 13:33:29;;;;;;;14.40;11.90;;;;;;;;;;4943730;29;20208;-73
2023/02/12 13:35:57;;;;;;;20.97;11.00;;;;;;;;;;4944068;28;20268;-73
2023/02/12 13:38:29;;;;;;;12.85;10.38;;;;;;;;;;4965246;28;20666;-73
2023/02/12 13:40:57;;;;;;;15.70;11.10;;;;;;;;;;4950604;28;20208;-73
2023/02/12 13:43:30;;;;;;;16.93;11.13;;;;;;;;;;4958766;28;20188;-72
2023/02/12 13:46:10;;;;;;;15.73;10.73;;;;;;;;;;4966563;28;20183;-73
2023/02/12 13:48:54;;;;;;;13.60;10.50;;;;;;;;;;4950382;28;20260;-73
2023/02/12 13:51:19;;;;;;;12.47;10.23;;;;;;;;;;4950426;28;20177;-74
2023/02/12 13:54:11;;;;;;;13.68;10.48;;;;;;;;;;4949654;29;20741;-74
2023/02/12 13:56:36;;;;;;;14.57;9.85;;;;;;;;;;4948329;28;20499;-74
2023/02/12 13:59:02;;;;;;;14.23;10.53;;;;;;;;;;4946873;28;20205;-74
2023/02/12 14:01:36;;;;;;;15.88;11.82;;;;;;;;;;4942781;28;20543;-74
2023/02/12 14:04:13;;;;;;;12.68;9.82;;;;;;;;;;4952670;28;20192;-74
2023/02/12 14:06:50;;;;;;;13.43;10.20;;;;;;;;;;4945600;28;20181;-74
2023/02/12 14:09:19;;;;;;;14.20;10.27;;;;;;;;;;4946565;28;20195;-75
2023/02/12 14:11:48;;;;;;;12.35;9.57;;;;;;;;;;4948217;28;20220;-75
2023/02/12 14:14:23;;;;;;;13.63;9.20;;;;;;;;;;4948645;28;20208;-74
2023/02/12 14:16:48;;;;;;;13.63;10.18;;;;;;;;;;4948605;28;20216;-73
2023/02/12 14:19:32;;;;;;;13.17;9.90;;;;;;;;;;4951444;28;20221;-73
2023/02/12 14:21:58;;;;;;;12.20;9.57;;;;;;;;;;4961039;28;20593;-73
2023/02/12 14:24:35;;;;;;;14.40;9.80;;;;;;;;;;4949406;28;20466;-73
2023/02/12 14:27:18;;;;;;;11.87;9.10;;;;;;;;;;4962905;28;20236;-73
2023/02/12 14:30:00;;;;;;;12.40;9.67;;;;;;;;;;4949995;28;20181;-73
2023/02/12 14:32:43;;;;;;;15.87;9.70;;;;;;;;;;4945782;28;20239;-73
2023/02/12 14:35:27;;;;;;;12.87;9.63;;;;;;;;;;4945770;29;20208;-73
2023/02/12 14:37:53;;;;;;;12.53;8.40;;;;;;;;;;4941336;28;20620;-73